Time;durP1;ratioP1;P1;durP2;ratioP2;P2;SDS_P1;SDS_P2;PMS_P1;PMS_P2;Temp;Humidity;BMP_temperature;BMP_pressure;BME280_temperature;BME280_humidity;BME280_pressure;Samples;Min_cycle;Max_cycle;Signal;HPM_P1;HPM_P2
2023/11/23 00:00:17;;;;;;;;;;;;;;;;;;2207539;59;1904;-17
2023/11/23 00:02:47;;;;;;;;;;;;;;;;;;2208772;59;2256;-17
2023/11/23 00:05:19;;;;;;;;;;;;;;;;;;2207316;67;2576;-17
2023/11/23 00:07:50;;;;;;;;;;;;;;;;;;2208945;59;1844;-17
2023/11/23 00:10:20;;;;;;;;;;;;;;;;;;2207679;59;1866;-17
2023/11/23 00:12:50;;;;;;;;;;;;;;;;;;2208260;67;1740;-17
2023/11/23 00:15:20;;;;;;;;;;;;;;;;;;2207275;59;2259;-17
2023/11/23 00:17:52;;;;;;;;;;;;;;;;;;2206023;53;2552;-75
2023/11/23 00:20:22;;;;;;;;;;;;;;;;;;2210016;59;1858;-75
2023/11/23 00:22:52;;;;;;;;;;;;;;;;;;2207974;59;2169;-76
2023/11/23 00:25:22;;;;;;;;;;;;;;;;;;2207522;59;1713;-74
2023/11/23 00:27:53;;;;;;;;;;;;;;;;;;2209640;67;1804;-76
2023/11/23 00:30:25;;;;;;;;;;;;;;;;;;2205796;59;2466;-75
2023/11/23 00:32:55;;;;;;;;;;;;;;;;;;2206060;59;1751;-75
2023/11/23 00:35:26;;;;;;;;;;;;;;;;;;2204449;59;2151;-76
2023/11/23 00:37:56;;;;;;;;;;;;;;;;;;2203451;59;2462;-75
2023/11/23 00:40:26;;;;;;;;;;;;;;;;;;2203384;59;1907;-75
2023/11/23 00:42:56;;;;;;;;;;;;;;;;;;2204155;59;1984;-76
2023/11/23 00:45:26;;;;;;;;;;;;;;;;;;2204790;59;2219;-76
2023/11/23 00:47:57;;;;;;;;;;;;;;;;;;2203851;59;2433;-75
2023/11/23 00:50:27;;;;;;;;;;;;;;;;;;2205066;59;1792;-75
2023/11/23 00:52:58;;;;;;;;;;;;;;;;;;2204692;59;2179;-76
2023/11/23 00:55:29;;;;;;;;;;;;;;;;;;2205445;59;1795;-75
2023/11/23 00:58:00;;;;;;;;;;;;;;;;;;2203983;59;2120;-75
2023/11/23 01:00:30;;;;;;;;;;;;;;;;;;2205336;59;1850;-75
2023/11/23 01:03:01;;;;;;;;;;;;;;;;;;2203941;59;1935;-75
2023/11/23 01:05:31;;;;;;;;;;;;;;;;;;2205841;59;1718;-75
2023/11/23 01:08:01;;;;;;;;;;;;;;;;;;2205357;59;1725;-75
2023/11/23 01:10:31;;;;;;;;;;;;;;;;;;2205981;59;1768;-75
2023/11/23 01:13:03;;;;;;;;;;;;;;;;;;2205477;59;1619;-75
2023/11/23 01:15:33;;;;;;;;;;;;;;;;;;2205133;67;1567;-75
2023/11/23 01:18:04;;;;;;;;;;;;;;;;;;2205983;59;1779;-75
2023/11/23 01:20:34;;;;;;;;;;;;;;;;;;2207173;59;1682;-75
2023/11/23 01:23:04;;;;;;;;;;;;;;;;;;2203407;59;1981;-75
2023/11/23 01:25:35;;;;;;;;;;;;;;;;;;2205063;59;1954;-75
2023/11/23 01:28:05;;;;;;;;;;;;;;;;;;2207320;59;2082;-75
2023/11/23 01:30:35;;;;;;;;;;;;;;;;;;2206337;59;2524;-74
2023/11/23 01:33:05;;;;;;;;;;;;;;;;;;2204173;59;1981;-75
2023/11/23 01:35:36;;;;;;;;;;;;;;;;;;2204920;59;1975;-75
2023/11/23 01:38:06;;;;;;;;;;;;;;;;;;2204446;59;2435;-75
2023/11/23 01:40:37;;;;;;;;;;;;;;;;;;2205034;59;1515;-75
2023/11/23 01:43:11;;;;;;;;;;;;;;;;;;2205185;59;2525;-75
2023/11/23 01:45:41;;;;;;;;;;;;;;;;;;2206590;59;1817;-75
2023/11/23 01:48:12;;;;;;;;;;;;;;;;;;2203917;59;1861;-75
2023/11/23 01:50:45;;;;;;;;;;;;;;;;;;2204797;59;1924;-75
2023/11/23 01:53:15;;;;;;;;;;;;;;;;;;2203606;59;1789;-76
2023/11/23 01:55:46;;;;;;;;;;;;;;;;;;2206059;67;2013;-75
2023/11/23 01:58:19;;;;;;;;;;;;;;;;;;2204805;59;1742;-75
2023/11/23 02:00:51;;;;;;;;;;;;;;;;;;2206926;59;2522;-75
2023/11/23 02:03:22;;;;;;;;;;;;;;;;;;2204398;59;2384;-75
2023/11/23 02:05:52;;;;;;;;;;;;;;;;;;2207627;59;2066;-75
2023/11/23 02:08:22;;;;;;;;;;;;;;;;;;2205902;59;1808;-75
2023/11/23 02:10:53;;;;;;;;;;;;;;;;;;2205302;59;1584;-75
2023/11/23 02:13:23;;;;;;;;;;;;;;;;;;2205570;67;1989;-75
2023/11/23 02:15:54;;;;;;;;;;;;;;;;;;2205208;59;1747;-75
2023/11/23 02:18:31;;;;;;;;;;;;;;;;;;2206197;59;1811;-75
2023/11/23 02:21:01;;;;;;;;;;;;;;;;;;2206743;63;1922;-76
2023/11/23 02:23:32;;;;;;;;;;;;;;;;;;2206091;59;2100;-75
2023/11/23 02:26:03;;;;;;;;;;;;;;;;;;2206254;59;1751;-75
2023/11/23 02:28:33;;;;;;;;;;;;;;;;;;2206794;59;2365;-76
2023/11/23 02:31:04;;;;;;;;;;;;;;;;;;2206496;59;1674;-77
2023/11/23 02:33:34;;;;;;;;;;;;;;;;;;2205777;59;1708;-75
2023/11/23 02:36:05;;;;;;;;;;;;;;;;;;2205554;59;1948;-76
2023/11/23 02:38:35;;;;;;;;;;;;;;;;;;2204797;59;2151;-76
2023/11/23 02:41:05;;;;;;;;;;;;;;;;;;2204649;59;2499;-76
2023/11/23 02:43:36;;;;;;;;;;;;;;;;;;2205874;59;1822;-75
2023/11/23 02:46:06;;;;;;;;;;;;;;;;;;2205603;59;1871;-76
2023/11/23 02:48:37;;;;;;;;;;;;;;;;;;2203398;59;2211;-75
2023/11/23 02:51:07;;;;;;;;;;;;;;;;;;2206135;59;2405;-75
2023/11/23 02:53:43;;;;;;;;;;;;;;;;;;2206054;59;1837;-76
2023/11/23 02:56:15;;;;;;;;;;;;;;;;;;2203432;59;2509;-77
2023/11/23 02:58:46;;;;;;;;;;;;;;;;;;2205777;59;1868;-75
2023/11/23 03:01:18;;;;;;;;;;;;;;;;;;2205467;59;2058;-76
2023/11/23 03:03:49;;;;;;;;;;;;;;;;;;2205549;59;2391;-75
2023/11/23 03:06:19;;;;;;;;;;;;;;;;;;2204539;59;2309;-75
2023/11/23 03:08:51;;;;;;;;;;;;;;;;;;2205922;59;1714;-75
2023/11/23 03:11:24;;;;;;;;;;;;;;;;;;2204269;59;2415;-75
2023/11/23 03:13:57;;;;;;;;;;;;;;;;;;2204468;59;1853;-76
2023/11/23 03:16:30;;;;;;;;;;;;;;;;;;2203759;67;1837;-75
2023/11/23 03:19:08;;;;;;;;;;;;;;;;;;2204692;59;1829;-75
2023/11/23 03:21:38;;;;;;;;;;;;;;;;;;2205115;59;1925;-75
2023/11/23 03:24:09;;;;;;;;;;;;;;;;;;2204410;59;1913;-75
2023/11/23 03:26:39;;;;;;;;;;;;;;;;;;2204898;59;1951;-76
2023/11/23 03:29:09;;;;;;;;;;;;;;;;;;2204962;59;2249;-75
2023/11/23 03:31:42;;;;;;;;;;;;;;;;;;2205423;59;1695;-75
2023/11/23 03:34:12;;;;;;;;;;;;;;;;;;2204314;59;1872;-75
2023/11/23 03:36:43;;;;;;;;;;;;;;;;;;2206288;59;2235;-75
2023/11/23 03:39:13;;;;;;;;;;;;;;;;;;2203375;59;2206;-76
2023/11/23 03:41:44;;;;;;;;;;;;;;;;;;2204459;59;2475;-75
2023/11/23 03:44:14;;;;;;;;;;;;;;;;;;2203650;59;2021;-75
2023/11/23 03:46:45;;;;;;;;;;;;;;;;;;2204438;67;1790;-75
2023/11/23 03:49:15;;;;;;;;;;;;;;;;;;2203669;59;1794;-76
2023/11/23 03:51:54;;;;;;;;;;;;;;;;;;2204819;59;1868;-75
2023/11/23 03:54:25;;;;;;;;;;;;;;;;;;2204441;59;1860;-75
2023/11/23 03:56:55;;;;;;;;;;;;;;;;;;2205474;59;1955;-76
2023/11/23 03:59:25;;;;;;;;;;;;;;;;;;2213054;59;1988;-76
2023/11/23 04:01:56;;;;;;;;;;;;;;;;;;2214536;59;2050;-75
2023/11/23 04:04:26;;;;;;;;;;;;;;;;;;2213265;59;1737;-75
2023/11/23 04:06:57;;;;;;;;;;;;;;;;;;2205147;59;1801;-76
2023/11/23 04:09:28;;;;;;;;;;;;;;;;;;2204624;59;1496;-76
2023/11/23 04:12:05;;;;;;;;;;;;;;;;;;2205725;59;1844;-75
2023/11/23 04:14:36;;;;;;;;;;;;;;;;;;2206038;59;1945;-75
2023/11/23 04:17:07;;;;;;;;;;;;;;;;;;2204755;59;1778;-75
2023/11/23 04:19:37;;;;;;;;;;;;;;;;;;2204230;59;2487;-75
2023/11/23 04:22:08;;;;;;;;;;;;;;;;;;2205123;59;1984;-76
2023/11/23 04:24:40;;;;;;;;;;;;;;;;;;2204603;67;1849;-75
2023/11/23 04:27:11;;;;;;;;;;;;;;;;;;2205329;59;1858;-75
2023/11/23 04:29:41;;;;;;;;;;;;;;;;;;2205098;59;2187;-76
2023/11/23 04:32:11;;;;;;;;;;;;;;;;;;2205013;59;2018;-75
2023/11/23 04:34:42;;;;;;;;;;;;;;;;;;2203970;59;2100;-76
2023/11/23 04:37:13;;;;;;;;;;;;;;;;;;2204999;59;1723;-75
2023/11/23 04:39:44;;;;;;;;;;;;;;;;;;2205194;59;2853;-76
2023/11/23 04:42:14;;;;;;;;;;;;;;;;;;2205664;59;2571;-75
2023/11/23 04:44:44;;;;;;;;;;;;;;;;;;2206668;59;1674;-76
2023/11/23 04:47:15;;;;;;;;;;;;;;;;;;2206345;59;1799;-75
2023/11/23 04:49:45;;;;;;;;;;;;;;;;;;2206977;59;1797;-75
2023/11/23 04:52:15;;;;;;;;;;;;;;;;;;2205489;67;1902;-75
2023/11/23 04:54:46;;;;;;;;;;;;;;;;;;2205715;59;1681;-76
2023/11/23 04:57:17;;;;;;;;;;;;;;;;;;2204067;59;2166;-76
2023/11/23 04:59:47;;;;;;;;;;;;;;;;;;2204405;59;1685;-75
2023/11/23 05:02:19;;;;;;;;;;;;;;;;;;2205343;59;2792;-76
2023/11/23 05:04:50;;;;;;;;;;;;;;;;;;2205006;63;1702;-76
2023/11/23 05:07:20;;;;;;;;;;;;;;;;;;2205067;59;1818;-75
2023/11/23 05:09:51;;;;;;;;;;;;;;;;;;2205668;67;1813;-75
2023/11/23 05:12:21;;;;;;;;;;;;;;;;;;2204217;67;1749;-75
2023/11/23 05:14:51;;;;;;;;;;;;;;;;;;2205542;59;1710;-75
2023/11/23 05:17:21;;;;;;;;;;;;;;;;;;2204803;67;1753;-75
2023/11/23 05:19:52;;;;;;;;;;;;;;;;;;2206139;59;1878;-75
2023/11/23 05:22:22;;;;;;;;;;;;;;;;;;2204106;59;2248;-75
2023/11/23 05:24:53;;;;;;;;;;;;;;;;;;2205725;59;1969;-76
2023/11/23 05:27:23;;;;;;;;;;;;;;;;;;2209295;59;1650;-76
2023/11/23 05:29:53;;;;;;;;;;;;;;;;;;2205037;59;2358;-75
2023/11/23 05:32:24;;;;;;;;;;;;;;;;;;2204804;59;1713;-75
2023/11/23 05:34:56;;;;;;;;;;;;;;;;;;2205862;67;1619;-75
2023/11/23 05:37:27;;;;;;;;;;;;;;;;;;2209324;59;2183;-76
2023/11/23 05:39:58;;;;;;;;;;;;;;;;;;2204332;67;2946;-75
2023/11/23 05:42:30;;;;;;;;;;;;;;;;;;2204718;59;2299;-75
2023/11/23 05:45:01;;;;;;;;;;;;;;;;;;2205588;59;1756;-75
2023/11/23 05:47:31;;;;;;;;;;;;;;;;;;2204096;59;1699;-75
2023/11/23 05:50:03;;;;;;;;;;;;;;;;;;2204622;59;2537;-76
2023/11/23 05:52:36;;;;;;;;;;;;;;;;;;2204064;59;2026;-76
2023/11/23 05:55:06;;;;;;;;;;;;;;;;;;2206078;59;1641;-75
2023/11/23 05:57:36;;;;;;;;;;;;;;;;;;2203995;59;1971;-75
2023/11/23 06:00:09;;;;;;;;;;;;;;;;;;2205872;59;1805;-75
2023/11/23 06:02:41;;;;;;;;;;;;;;;;;;2204983;59;2314;-75
2023/11/23 06:05:11;;;;;;;;;;;;;;;;;;2206277;59;1733;-75
2023/11/23 06:07:41;;;;;;;;;;;;;;;;;;2204876;59;1853;-75
2023/11/23 06:10:11;;;;;;;;;;;;;;;;;;2205516;59;1689;-76
2023/11/23 06:12:42;;;;;;;;;;;;;;;;;;2203623;59;2292;-76
2023/11/23 06:15:13;;;;;;;;;;;;;;;;;;2204436;59;2293;-76
2023/11/23 06:17:44;;;;;;;;;;;;;;;;;;2204899;59;2041;-76
2023/11/23 06:20:24;;;;;;;;;;;;;;;;;;2202425;59;1807;-75
2023/11/23 06:22:55;;;;;;;;;;;;;;;;;;2204443;59;1920;-75
2023/11/23 06:25:25;;;;;;;;;;;;;;;;;;2202514;67;1980;-76
2023/11/23 06:27:56;;;;;;;;;;;;;;;;;;2202612;59;2028;-76
2023/11/23 06:30:26;;;;;;;;;;;;;;;;;;2203825;59;2388;-76
2023/11/23 06:32:58;;;;;;;;;;;;;;;;;;2202817;59;2439;-76
2023/11/23 06:35:29;;;;;;;;;;;;;;;;;;2201996;59;2250;-76
2023/11/23 06:37:59;;;;;;;;;;;;;;;;;;2204187;59;1756;-75
2023/11/23 06:40:29;;;;;;;;;;;;;;;;;;2202788;59;1770;-75
2023/11/23 06:43:00;;;;;;;;;;;;;;;;;;2202510;59;2762;-76
2023/11/23 06:45:31;;;;;;;;;;;;;;;;;;2202929;59;2215;-75
2023/11/23 06:48:01;;;;;;;;;;;;;;;;;;2203863;59;2326;-75
2023/11/23 06:50:32;;;;;;;;;;;;;;;;;;2204228;59;1740;-75
2023/11/23 06:53:02;;;;;;;;;;;;;;;;;;2205339;59;1922;-76
2023/11/23 06:55:33;;;;;;;;;;;;;;;;;;2204182;59;1631;-76
2023/11/23 06:58:05;;;;;;;;;;;;;;;;;;2205443;59;1918;-76
2023/11/23 07:00:35;;;;;;;;;;;;;;;;;;2203716;67;1921;-75
2023/11/23 07:03:05;;;;;;;;;;;;;;;;;;2204988;59;2389;-76
2023/11/23 07:05:35;;;;;;;;;;;;;;;;;;2202355;62;2324;-75
2023/11/23 07:08:06;;;;;;;;;;;;;;;;;;2203904;59;1734;-75
2023/11/23 07:10:36;;;;;;;;;;;;;;;;;;2203879;59;2839;-75
2023/11/23 07:13:07;;;;;;;;;;;;;;;;;;2203200;59;1776;-75
2023/11/23 07:15:37;;;;;;;;;;;;;;;;;;2202623;59;2101;-76
2023/11/23 07:18:07;;;;;;;;;;;;;;;;;;2203784;59;2685;-75
2023/11/23 07:20:38;;;;;;;;;;;;;;;;;;2202047;59;1975;-76
2023/11/23 07:23:09;;;;;;;;;;;;;;;;;;2203944;59;2346;-76
2023/11/23 07:25:45;;;;;;;;;;;;;;;;;;2202973;59;1978;-76
2023/11/23 07:28:16;;;;;;;;;;;;;;;;;;2204496;59;1955;-76
2023/11/23 07:30:48;;;;;;;;;;;;;;;;;;2202491;59;2494;-75
2023/11/23 07:33:19;;;;;;;;;;;;;;;;;;2208146;59;2051;-75
2023/11/23 07:35:50;;;;;;;;;;;;;;;;;;2206421;59;2282;-76
2023/11/23 07:38:20;;;;;;;;;;;;;;;;;;2206578;59;2069;-76
2023/11/23 07:40:51;;;;;;;;;;;;;;;;;;2207248;59;2106;-76
2023/11/23 07:43:21;;;;;;;;;;;;;;;;;;2205290;59;2581;-76
2023/11/23 07:45:51;;;;;;;;;;;;;;;;;;2205925;59;2345;-75
2023/11/23 07:48:22;;;;;;;;;;;;;;;;;;2207304;67;2208;-75
2023/11/23 07:50:52;;;;;;;;;;;;;;;;;;2207313;59;1859;-75
2023/11/23 07:53:26;;;;;;;;;;;;;;;;;;2205866;59;1864;-75
2023/11/23 07:55:57;;;;;;;;;;;;;;;;;;2207383;59;2008;-76
2023/11/23 07:58:27;;;;;;;;;;;;;;;;;;2205329;59;2244;-76
2023/11/23 08:00:57;;;;;;;;;;;;;;;;;;2208614;59;2063;-75
2023/11/23 08:03:27;;;;;;;;;;;;;;;;;;2205255;59;2351;-75
2023/11/23 08:05:59;;;;;;;;;;;;;;;;;;2206668;59;2344;-76
2023/11/23 08:08:29;;;;;;;;;;;;;;;;;;2205750;59;1886;-75
2023/11/23 08:11:00;;;;;;;;;;;;;;;;;;2207120;59;1602;-75
2023/11/23 08:13:31;;;;;;;;;;;;;;;;;;2206565;67;2574;-76
2023/11/23 08:16:04;;;;;;;;;;;;;;;;;;2211492;59;2359;-75
2023/11/23 08:18:34;;;;;;;;;;;;;;;;;;2215291;59;1959;-76
2023/11/23 08:21:05;;;;;;;;;;;;;;;;;;2218826;59;1909;-76
2023/11/23 08:23:36;;;;;;;;;;;;;;;;;;2216808;59;1736;-76
2023/11/23 08:26:06;;;;;;;;;;;;;;;;;;2214446;67;1738;-76
2023/11/23 08:28:37;;;;;;;;;;;;;;;;;;2205506;59;2308;-75
2023/11/23 08:31:07;;;;;;;;;;;;;;;;;;2208664;59;2712;-76
2023/11/23 08:33:37;;;;;;;;;;;;;;;;;;2208491;59;2006;-75
2023/11/23 08:36:10;;;;;;;;;;;;;;;;;;2209591;59;1737;-75
2023/11/23 08:38:41;;;;;;;;;;;;;;;;;;2202860;59;2506;-76
2023/11/23 08:41:13;;;;;;;;;;;;;;;;;;2209260;59;1929;-75
2023/11/23 08:43:47;;;;;;;;;;;;;;;;;;2208723;59;2236;-75
2023/11/23 08:46:17;;;;;;;;;;;;;;;;;;2208396;59;2550;-75
2023/11/23 08:48:48;;;;;;;;;;;;;;;;;;2206740;59;2224;-75
2023/11/23 08:51:18;;;;;;;;;;;;;;;;;;2211154;59;2233;-75
2023/11/23 08:53:48;;;;;;;;;;;;;;;;;;2208783;59;1929;-76
2023/11/23 08:56:18;;;;;;;;;;;;;;;;;;2206924;59;2012;-77
2023/11/23 08:58:49;;;;;;;;;;;;;;;;;;2208326;59;1947;-76
2023/11/23 09:01:19;;;;;;;;;;;;;;;;;;2209290;59;2219;-76
2023/11/23 09:03:49;;;;;;;;;;;;;;;;;;2210011;59;2146;-76
2023/11/23 09:06:19;;;;;;;;;;;;;;;;;;2210023;67;2097;-76
2023/11/23 09:08:49;;;;;;;;;;;;;;;;;;2208706;59;2302;-76
2023/11/23 09:11:21;;;;;;;;;;;;;;;;;;2210291;59;2668;-75
2023/11/23 09:13:52;;;;;;;;;;;;;;;;;;2210590;59;2143;-75
2023/11/23 09:16:22;;;;;;;;;;;;;;;;;;2207763;67;1740;-75
2023/11/23 09:18:53;;;;;;;;;;;;;;;;;;2205427;59;2343;-75
2023/11/23 09:21:24;;;;;;;;;;;;;;;;;;2209447;67;1949;-75
2023/11/23 09:23:54;;;;;;;;;;;;;;;;;;2210692;59;1910;-75
2023/11/23 09:26:24;;;;;;;;;;;;;;;;;;2212133;59;1722;-75
2023/11/23 09:28:54;;;;;;;;;;;;;;;;;;2211144;59;2113;-75
2023/11/23 09:31:29;;;;;;;;;;;;;;;;;;2212562;67;1682;-76
2023/11/23 09:34:00;;;;;;;;;;;;;;;;;;2210823;59;2212;-76
2023/11/23 09:36:32;;;;;;;;;;;;;;;;;;2210262;59;1677;-75
2023/11/23 09:39:03;;;;;;;;;;;;;;;;;;2210872;59;1682;-75
2023/11/23 09:41:35;;;;;;;;;;;;;;;;;;2212024;59;2061;-76
2023/11/23 09:44:05;;;;;;;;;;;;;;;;;;2208661;59;2456;-76
2023/11/23 09:46:37;;;;;;;;;;;;;;;;;;2206845;59;2133;-75
2023/11/23 09:49:08;;;;;;;;;;;;;;;;;;2207206;59;2339;-75
2023/11/23 09:51:41;;;;;;;;;;;;;;;;;;2205666;67;1864;-76
2023/11/23 09:54:14;;;;;;;;;;;;;;;;;;2208277;67;1947;-75
2023/11/23 09:56:45;;;;;;;;;;;;;;;;;;2207016;59;1891;-76
2023/11/23 09:59:16;;;;;;;;;;;;;;;;;;2205615;59;2147;-75
2023/11/23 10:01:48;;;;;;;;;;;;;;;;;;2205473;59;2141;-75
2023/11/23 10:04:18;;;;;;;;;;;;;;;;;;2206368;59;2208;-75
2023/11/23 10:06:48;;;;;;;;;;;;;;;;;;2206169;67;1909;-75
2023/11/23 10:09:18;;;;;;;;;;;;;;;;;;2207342;59;1896;-76
2023/11/23 10:11:55;;;;;;;;;;;;;;;;;;2204949;59;2081;-75
2023/11/23 10:14:25;;;;;;;;;;;;;;;;;;2207192;59;1892;-75
2023/11/23 10:16:55;;;;;;;;;;;;;;;;;;2205681;59;2562;-75
2023/11/23 10:19:25;;;;;;;;;;;;;;;;;;2207128;59;2456;-75
2023/11/23 10:21:58;;;;;;;;;;;;;;;;;;2205648;59;1991;-75
2023/11/23 10:24:29;;;;;;;;;;;;;;;;;;2206556;67;1924;-75
2023/11/23 10:26:59;;;;;;;;;;;;;;;;;;2205258;59;2145;-75
2023/11/23 10:29:30;;;;;;;;;;;;;;;;;;2206468;59;1999;-76
2023/11/23 10:32:00;;;;;;;;;;;;;;;;;;2206587;67;2030;-75
2023/11/23 10:34:32;;;;;;;;;;;;;;;;;;2205942;59;1855;-76
2023/11/23 10:37:04;;;;;;;;;;;;;;;;;;2206150;62;1928;-75
2023/11/23 10:39:35;;;;;;;;;;;;;;;;;;2206144;59;1953;-75
2023/11/23 10:42:05;;;;;;;;;;;;;;;;;;2206565;59;2273;-75
2023/11/23 10:44:35;;;;;;;;;;;;;;;;;;2204525;59;1801;-75
2023/11/23 10:47:07;;;;;;;;;;;;;;;;;;2205437;59;2177;-75
2023/11/23 10:49:43;;;;;;;;;;;;;;;;;;2205581;59;1966;-75
2023/11/23 10:52:17;;;;;;;;;;;;;;;;;;2206013;59;2068;-75
2023/11/23 10:54:49;;;;;;;;;;;;;;;;;;2201742;67;2444;-75
2023/11/23 10:57:21;;;;;;;;;;;;;;;;;;2205008;59;1747;-75
2023/11/23 10:59:52;;;;;;;;;;;;;;;;;;2205669;59;2117;-76
2023/11/23 11:02:23;;;;;;;;;;;;;;;;;;2204847;59;2906;-74
2023/11/23 11:04:57;;;;;;;;;;;;;;;;;;2206011;67;1791;-76
2023/11/23 11:07:30;;;;;;;;;;;;;;;;;;2205838;67;2043;-75
2023/11/23 11:10:05;;;;;;;;;;;;;;;;;;2205281;59;2348;-75
2023/11/23 11:12:35;;;;;;;;;;;;;;;;;;2202298;59;1824;-75
2023/11/23 11:15:06;;;;;;;;;;;;;;;;;;2206318;59;1805;-75
2023/11/23 11:17:38;;;;;;;;;;;;;;;;;;2204864;59;1811;-75
2023/11/23 11:20:10;;;;;;;;;;;;;;;;;;2206332;67;2592;-75
2023/11/23 11:22:40;;;;;;;;;;;;;;;;;;2205782;67;1950;-76
2023/11/23 11:25:13;;;;;;;;;;;;;;;;;;2206561;67;2270;-76
2023/11/23 11:27:46;;;;;;;;;;;;;;;;;;2203511;59;2717;-75
2023/11/23 11:30:24;;;;;;;;;;;;;;;;;;2204859;59;2273;-75
2023/11/23 11:32:56;;;;;;;;;;;;;;;;;;2204724;59;1757;-75
2023/11/23 11:35:27;;;;;;;;;;;;;;;;;;2207112;59;1962;-75
2023/11/23 11:37:58;;;;;;;;;;;;;;;;;;2205599;67;2189;-75
2023/11/23 11:40:28;;;;;;;;;;;;;;;;;;2203640;59;2037;-76
2023/11/23 11:42:58;;;;;;;;;;;;;;;;;;2205939;67;1932;-76
2023/11/23 11:45:29;;;;;;;;;;;;;;;;;;2205855;59;2555;-75
2023/11/23 11:48:02;;;;;;;;;;;;;;;;;;2205588;59;2737;-75
2023/11/23 11:50:33;;;;;;;;;;;;;;;;;;2207682;59;1740;-75
2023/11/23 11:53:05;;;;;;;;;;;;;;;;;;2206802;59;2113;-76
2023/11/23 11:55:35;;;;;;;;;;;;;;;;;;2207227;67;2081;-76
2023/11/23 11:58:05;;;;;;;;;;;;;;;;;;2207615;67;1834;-77
2023/11/23 12:00:36;;;;;;;;;;;;;;;;;;2207002;67;1936;-75
2023/11/23 12:03:06;;;;;;;;;;;;;;;;;;2207305;59;2380;-75
2023/11/23 12:05:40;;;;;;;;;;;;;;;;;;2206576;59;1969;-76
2023/11/23 12:08:11;;;;;;;;;;;;;;;;;;2209410;59;2397;-76
2023/11/23 12:10:42;;;;;;;;;;;;;;;;;;2210298;59;1863;-76
2023/11/23 12:13:22;;;;;;;;;;;;;;;;;;2209008;59;1865;-75
2023/11/23 12:15:53;;;;;;;;;;;;;;;;;;2207492;59;2229;-75
2023/11/23 12:18:30;;;;;;;;;;;;;;;;;;2208560;59;2039;-76
2023/11/23 12:21:03;;;;;;;;;;;;;;;;;;2208009;59;1812;-76
2023/11/23 12:23:43;;;;;;;;;;;;;;;;;;2207781;59;2030;-75
2023/11/23 12:26:14;;;;;;;;;;;;;;;;;;2207969;59;2262;-75
2023/11/23 12:28:47;;;;;;;;;;;;;;;;;;2208815;59;2168;-75
2023/11/23 12:31:21;;;;;;;;;;;;;;;;;;2209110;59;1819;-76
2023/11/23 12:33:52;;;;;;;;;;;;;;;;;;2209632;59;1978;-77
2023/11/23 12:36:29;;;;;;;;;;;;;;;;;;2209342;59;2174;-75
2023/11/23 12:39:03;;;;;;;;;;;;;;;;;;2205112;59;2301;-76
2023/11/23 12:41:38;;;;;;;;;;;;;;;;;;2207370;59;2108;-75
2023/11/23 12:44:10;;;;;;;;;;;;;;;;;;2208335;67;2073;-75
2023/11/23 12:46:41;;;;;;;;;;;;;;;;;;2207879;67;1754;-76
2023/11/23 12:49:14;;;;;;;;;;;;;;;;;;2207363;59;2783;-77
2023/11/23 12:51:44;;;;;;;;;;;;;;;;;;2207603;59;1836;-76
2023/11/23 12:54:14;;;;;;;;;;;;;;;;;;2208343;59;2142;-76
2023/11/23 12:56:48;;;;;;;;;;;;;;;;;;2208157;67;1760;-76
2023/11/23 12:59:19;;;;;;;;;;;;;;;;;;2208385;59;2032;-76
2023/11/23 13:01:52;;;;;;;;;;;;;;;;;;2207857;67;2014;-76
2023/11/23 13:04:24;;;;;;;;;;;;;;;;;;2208694;59;1706;-77
2023/11/23 13:06:57;;;;;;;;;;;;;;;;;;2207494;59;1819;-75
2023/11/23 13:09:27;;;;;;;;;;;;;;;;;;2208457;59;1984;-76
2023/11/23 13:11:58;;;;;;;;;;;;;;;;;;2207472;59;1954;-77
2023/11/23 13:14:28;;;;;;;;;;;;;;;;;;2206908;60;1848;-76
2023/11/23 13:16:58;;;;;;;;;;;;;;;;;;2208012;67;1783;-77
2023/11/23 13:19:31;;;;;;;;;;;;;;;;;;2208674;61;1915;-76
2023/11/23 13:22:02;;;;;;;;;;;;;;;;;;2210380;59;2462;-77
2023/11/23 13:24:32;;;;;;;;;;;;;;;;;;2208459;59;2491;-75
2023/11/23 13:27:03;;;;;;;;;;;;;;;;;;2215047;59;1715;-76
2023/11/23 13:29:42;;;;;;;;;;;;;;;;;;2219414;59;2110;-76
2023/11/23 13:32:18;;;;;;;;;;;;;;;;;;2220218;59;1914;-76
2023/11/23 13:34:49;;;;;;;;;;;;;;;;;;2208420;59;1898;-77
2023/11/23 13:37:19;;;;;;;;;;;;;;;;;;2208083;59;2095;-75
2023/11/23 13:39:53;;;;;;;;;;;;;;;;;;2207603;59;2015;-80
2023/11/23 13:42:23;;;;;;;;;;;;;;;;;;2206222;59;2227;-76
2023/11/23 13:44:54;;;;;;;;;;;;;;;;;;2207086;59;1875;-76
2023/11/23 13:47:28;;;;;;;;;;;;;;;;;;2207621;59;1775;-76
2023/11/23 13:49:58;;;;;;;;;;;;;;;;;;2205435;59;2671;-75
2023/11/23 13:52:28;;;;;;;;;;;;;;;;;;2206584;59;2226;-76
2023/11/23 13:54:58;;;;;;;;;;;;;;;;;;2208312;59;1897;-75
2023/11/23 13:57:29;;;;;;;;;;;;;;;;;;2207893;59;1845;-75
2023/11/23 14:00:04;;;;;;;;;;;;;;;;;;2207246;59;1842;-75
2023/11/23 14:02:38;;;;;;;;;;;;;;;;;;2207660;59;2764;-75
2023/11/23 14:05:09;;;;;;;;;;;;;;;;;;2206247;59;1775;-76
2023/11/23 14:07:42;;;;;;;;;;;;;;;;;;2206814;59;2461;-75
2023/11/23 14:10:13;;;;;;;;;;;;;;;;;;2208211;59;1761;-76
2023/11/23 14:12:44;;;;;;;;;;;;;;;;;;2207437;59;2020;-75
2023/11/23 14:15:19;;;;;;;;;;;;;;;;;;2208841;59;2085;-75
2023/11/23 14:17:52;;;;;;;;;;;;;;;;;;2207018;59;1979;-75
2023/11/23 14:20:23;;;;;;;;;;;;;;;;;;2206266;59;1989;-75
2023/11/23 14:22:54;;;;;;;;;;;;;;;;;;2206052;59;1912;-76
2023/11/23 14:25:24;;;;;;;;;;;;;;;;;;2207039;67;1848;-76
2023/11/23 14:27:55;;;;;;;;;;;;;;;;;;2206854;59;2209;-75
2023/11/23 14:30:25;;;;;;;;;;;;;;;;;;2206956;59;2625;-75
2023/11/23 14:32:58;;;;;;;;;;;;;;;;;;2207583;67;1917;-76
2023/11/23 14:35:31;;;;;;;;;;;;;;;;;;2205161;59;1864;-76
2023/11/23 14:38:05;;;;;;;;;;;;;;;;;;2206774;59;2003;-76
2023/11/23 14:40:35;;;;;;;;;;;;;;;;;;2207635;59;1959;-76
2023/11/23 14:43:07;;;;;;;;;;;;;;;;;;2206822;59;1943;-76
2023/11/23 14:45:37;;;;;;;;;;;;;;;;;;2207081;59;1757;-75
2023/11/23 14:48:09;;;;;;;;;;;;;;;;;;2202305;59;1923;-75
2023/11/23 14:50:40;;;;;;;;;;;;;;;;;;2206703;59;2410;-75
2023/11/23 14:53:13;;;;;;;;;;;;;;;;;;2206456;59;2107;-75
2023/11/23 14:55:43;;;;;;;;;;;;;;;;;;2208476;59;1989;-75
2023/11/23 14:58:13;;;;;;;;;;;;;;;;;;2206499;59;1953;-76
2023/11/23 15:00:44;;;;;;;;;;;;;;;;;;2206037;59;2020;-76
2023/11/23 15:03:14;;;;;;;;;;;;;;;;;;2207243;59;2252;-76
2023/11/23 15:05:45;;;;;;;;;;;;;;;;;;2207110;59;1654;-76
2023/11/23 15:08:19;;;;;;;;;;;;;;;;;;2207272;59;2021;-76
2023/11/23 15:10:50;;;;;;;;;;;;;;;;;;2206150;67;2984;-76
2023/11/23 15:13:20;;;;;;;;;;;;;;;;;;2207808;59;1852;-76
2023/11/23 15:15:51;;;;;;;;;;;;;;;;;;2208233;59;1824;-76
2023/11/23 15:18:22;;;;;;;;;;;;;;;;;;2208089;59;1929;-75
2023/11/23 15:20:52;;;;;;;;;;;;;;;;;;2207619;59;1630;-76
2023/11/23 15:23:23;;;;;;;;;;;;;;;;;;2207482;59;2502;-75
2023/11/23 15:25:54;;;;;;;;;;;;;;;;;;2207170;59;2083;-77
2023/11/23 15:28:25;;;;;;;;;;;;;;;;;;2206364;59;2035;-75
2023/11/23 15:30:56;;;;;;;;;;;;;;;;;;2206718;67;1936;-75
2023/11/23 15:33:27;;;;;;;;;;;;;;;;;;2207768;59;1950;-76
2023/11/23 15:35:58;;;;;;;;;;;;;;;;;;2207058;59;1887;-76
2023/11/23 15:38:28;;;;;;;;;;;;;;;;;;2205726;67;1990;-75
2023/11/23 15:40:58;;;;;;;;;;;;;;;;;;2207032;59;1715;-75
2023/11/23 15:43:29;;;;;;;;;;;;;;;;;;2207366;59;1983;-75
2023/11/23 15:45:59;;;;;;;;;;;;;;;;;;2206323;59;2297;-77
2023/11/23 15:48:32;;;;;;;;;;;;;;;;;;2208335;59;1996;-76
2023/11/23 15:51:04;;;;;;;;;;;;;;;;;;2205613;59;2341;-76
2023/11/23 15:53:36;;;;;;;;;;;;;;;;;;2206905;59;2554;-75
2023/11/23 15:56:08;;;;;;;;;;;;;;;;;;2205651;59;2205;-77
2023/11/23 15:58:38;;;;;;;;;;;;;;;;;;2206192;59;2010;-75
2023/11/23 16:01:09;;;;;;;;;;;;;;;;;;2206672;59;1807;-75
2023/11/23 16:03:40;;;;;;;;;;;;;;;;;;2207323;59;2284;-76
2023/11/23 16:06:11;;;;;;;;;;;;;;;;;;2206927;58;2014;-76
2023/11/23 16:08:42;;;;;;;;;;;;;;;;;;2207413;59;1927;-76
2023/11/23 16:11:13;;;;;;;;;;;;;;;;;;2207432;59;2518;-75
2023/11/23 16:13:45;;;;;;;;;;;;;;;;;;2206716;59;2144;-75
2023/11/23 16:16:15;;;;;;;;;;;;;;;;;;2208489;59;1902;-75
2023/11/23 16:18:45;;;;;;;;;;;;;;;;;;2207908;59;2185;-75
2023/11/23 16:21:17;;;;;;;;;;;;;;;;;;2206744;59;1846;-75
2023/11/23 16:23:47;;;;;;;;;;;;;;;;;;2207309;59;2581;-76
2023/11/23 16:26:18;;;;;;;;;;;;;;;;;;2206241;59;2177;-75
2023/11/23 16:28:49;;;;;;;;;;;;;;;;;;2207827;59;2264;-76
2023/11/23 16:31:19;;;;;;;;;;;;;;;;;;2206497;67;1924;-75
2023/11/23 16:33:50;;;;;;;;;;;;;;;;;;2208030;59;2227;-75
2023/11/23 16:36:23;;;;;;;;;;;;;;;;;;2207429;59;1750;-75
2023/11/23 16:38:53;;;;;;;;;;;;;;;;;;2207239;59;1898;-75
2023/11/23 16:41:24;;;;;;;;;;;;;;;;;;2207798;67;2163;-75
2023/11/23 16:43:55;;;;;;;;;;;;;;;;;;2206920;59;2008;-75
2023/11/23 16:46:25;;;;;;;;;;;;;;;;;;2208013;59;2020;-75
2023/11/23 16:48:56;;;;;;;;;;;;;;;;;;2207264;59;1835;-75
2023/11/23 16:51:26;;;;;;;;;;;;;;;;;;2207960;59;2620;-75
2023/11/23 16:53:56;;;;;;;;;;;;;;;;;;2205274;59;2441;-75
2023/11/23 16:56:27;;;;;;;;;;;;;;;;;;2207523;59;2351;-75
2023/11/23 16:58:58;;;;;;;;;;;;;;;;;;2206295;59;1942;-75
2023/11/23 17:01:28;;;;;;;;;;;;;;;;;;2208791;59;1936;-75
2023/11/23 17:03:58;;;;;;;;;;;;;;;;;;2206862;59;2352;-76
2023/11/23 17:06:28;;;;;;;;;;;;;;;;;;2208682;67;1764;-75
2023/11/23 17:09:02;;;;;;;;;;;;;;;;;;2206837;59;2320;-75
2023/11/23 17:11:33;;;;;;;;;;;;;;;;;;2208572;59;1740;-75
2023/11/23 17:14:03;;;;;;;;;;;;;;;;;;2207573;59;2099;-75
2023/11/23 17:16:34;;;;;;;;;;;;;;;;;;2207233;59;1984;-75
2023/11/23 17:19:04;;;;;;;;;;;;;;;;;;2206602;59;1936;-75
2023/11/23 17:21:38;;;;;;;;;;;;;;;;;;2207483;59;2273;-75
2023/11/23 17:24:09;;;;;;;;;;;;;;;;;;2208304;59;1858;-75
2023/11/23 17:26:41;;;;;;;;;;;;;;;;;;2206272;59;2298;-76
2023/11/23 17:29:11;;;;;;;;;;;;;;;;;;2207158;59;2295;-75